Flight Track Log - Related Links

Times and Time Zones

All times are in EDT time to prevent confusion due to time zone crossing. See the N868DB flight status page for this flight to view local times or setup timezone preferences in your user account.

Time Position Orientation Groundspeed Altitude Reporting Facility
EDT Latitude Longitude Course Direction KTS MPH feet Rate Location/Type
Mon 09:09:58 AM 51.5333 -51.9333 248° West 490 564 39,000  Level Moncton Center
Mon 09:10:37 AM 51.5167 -52.0500 257° West 480 552 39,000  Level Gander Center
Mon 09:11:37 AM 51.4667 -52.2500 248° West 490 564 39,000  Level Gander Center
Mon 09:12:37 AM 51.4167 -52.4500 248° West 490 564 39,000  Level Gander Center
Mon 09:13:37 AM 51.3667 -52.6500 248° West 480 552 39,000  Level Gander Center
Mon 09:14:00 AM 51.4402 -52.4059 249° West  Level FlightAware Approximate
Mon 09:14:37 AM 51.3167 -52.8333 246° West 480 552 39,000  Level Gander Center
Mon 09:15:00 AM 51.3940 -52.5911 248° West  Level FlightAware Approximate
Mon 09:15:58 AM 51.2500 -53.1167 249° West 480 552 39,000  Level Moncton Center
Mon 09:16:58 AM 51.2000 -53.3167 248° West 480 552 39,300 364 Climbing Moncton Center
Mon 09:17:37 AM 51.1667 -53.4333 246° West 480 552 39,600 424 Climbing Gander Center
Mon 09:18:37 AM 51.1000 -53.6333 242° Southwest 480 552 40,000 400 Climbing Gander Center
Mon 09:19:37 AM 51.0333 -53.8333 242° Southwest 480 552 40,400 400 Climbing Gander Center
Mon 09:20:37 AM 50.9833 -54.0167 247° West 480 552 40,800 400 Climbing Gander Center
Mon 09:21:37 AM 50.9333 -54.2167 248° West 480 552 41,200 400 Climbing Gander Center
Mon 09:22:37 AM 50.8667 -54.3833 238° Southwest 470 541 41,600 350 Climbing Gander Center
Mon 09:23:37 AM 50.8167 -54.5500 245° Southwest 470 541 41,900 300 Climbing Gander Center
Mon 09:24:37 AM 50.7500 -54.7500 242° Southwest 460 529 42,200 250 Climbing Gander Center
Mon 09:25:37 AM 50.7000 -54.9333 247° West 460 529 42,400 200 Climbing Gander Center
Mon 09:26:37 AM 50.6500 -55.1333 249° West 460 529 42,600 200 Climbing Gander Center
Mon 09:27:37 AM 50.5833 -55.3000 238° Southwest 460 529 42,800 200 Climbing Gander Center
Mon 09:28:37 AM 50.5333 -55.5000 249° West 460 529 43,000 100 Climbing Gander Center
Mon 09:29:37 AM 50.4667 -55.6500 235° Southwest 460 529 43,000  Level Gander Center
Mon 09:30:37 AM 50.4167 -55.8500 249° West 460 529 43,000  Level Gander Center
Mon 09:31:37 AM 50.3500 -56.0167 238° Southwest 470 541 43,000  Level Gander Center
Mon 09:32:37 AM 50.3000 -56.2000 247° West 470 541 43,000  Level Gander Center
Mon 09:33:37 AM 50.2167 -56.4000 237° Southwest 470 541 43,000  Level Gander Center
Mon 09:34:37 AM 50.1500 -56.5500 235° Southwest 470 541 43,000  Level Gander Center
Mon 09:35:37 AM 50.1000 -56.7500 249° West 470 541 43,000  Level Gander Center
Mon 09:36:37 AM 50.0333 -56.9333 241° Southwest 470 541 43,000  Level Gander Center
Mon 09:37:37 AM 49.9833 -57.1000 245° Southwest 460 529 43,000  Level Gander Center
Mon 09:38:37 AM 49.9167 -57.2833 241° Southwest 460 529 43,000  Level Gander Center
Mon 09:39:37 AM 49.8500 -57.4667 241° Southwest 460 529 43,000  Level Gander Center
Mon 09:40:37 AM 49.8000 -57.6333 245° Southwest 460 529 43,000  Level Gander Center
Mon 09:41:37 AM 49.7333 -57.8167 241° Southwest 460 529 43,000  Level Gander Center
Mon 09:42:37 AM 49.6667 -57.9667 236° Southwest 460 529 43,000  Level Gander Center
Mon 09:43:37 AM 49.6000 -58.1333 238° Southwest 460 529 43,000  Level Gander Center
Mon 09:44:37 AM 49.5500 -58.3167 247° West 460 529 43,000  Level Gander Center
Mon 09:45:37 AM 49.4833 -58.5000 241° Southwest 460 529 43,000  Level Gander Center
Mon 09:46:37 AM 49.4167 -58.6667 238° Southwest 460 529 43,000  Level Gander Center
Mon 09:47:37 AM 49.3500 -58.8500 241° Southwest 460 529 43,000  Level Gander Center
Mon 09:48:37 AM 49.2833 -59.0333 241° Southwest 460 529 43,000  Level Gander Center
Mon 09:49:37 AM 49.2333 -59.1833 243° Southwest 460 529 43,000  Level Gander Center
Mon 09:50:37 AM 49.1500 -59.3667 235° Southwest 460 529 43,000  Level Gander Center
Mon 09:51:37 AM 49.0833 -59.5167 236° Southwest 460 529 43,000  Level Gander Center
Mon 09:52:37 AM 49.0167 -59.7000 241° Southwest 460 529 43,000  Level Gander Center
Mon 09:53:37 AM 48.9500 -59.8500 236° Southwest 460 529 43,000  Level Gander Center
Mon 09:54:37 AM 48.9000 -60.0333 248° West 460 529 43,000  Level Gander Center
Mon 09:55:37 AM 48.8333 -60.1833 236° Southwest 460 529 43,000  Level Gander Center
Mon 09:56:37 AM 48.7667 -60.3667 241° Southwest 460 529 43,000  Level Gander Center
Mon 09:57:37 AM 48.7000 -60.5500 241° Southwest 460 529 43,000  Level Gander Center
Mon 09:58:37 AM 48.6333 -60.7000 236° Southwest 460 529 43,000  Level Gander Center
Mon 09:59:37 AM 48.5667 -60.8833 241° Southwest 460 529 43,000  Level Gander Center
Mon 10:00:37 AM 48.5000 -61.0333 236° Southwest 460 529 43,000  Level Gander Center
Mon 10:01:37 AM 48.4333 -61.2000 239° Southwest 460 529 43,000  Level Gander Center
Mon 10:02:37 AM 48.3667 -61.3500 236° Southwest 460 529 43,000  Level Gander Center
Mon 10:03:58 AM 48.2667 -61.5833 237° Southwest 460 529 43,000  Level Moncton Center
Mon 10:04:37 AM 48.2333 -61.6833 243° Southwest 460 529 43,000  Level Gander Center
Mon 10:05:37 AM 48.1667 -61.8333 236° Southwest 460 529 43,000  Level Gander Center
Mon 10:06:37 AM 48.1000 -62.0000 239° Southwest 460 529 43,000  Level Gander Center
Mon 10:07:37 AM 48.0333 -62.1500 236° Southwest 460 529 43,000  Level Gander Center
Mon 10:08:37 AM 47.9667 -62.3333 242° Southwest 470 541 43,000  Level Gander Center
Mon 10:09:37 AM 47.8833 -62.4833 230° Southwest 460 529 43,000  Level Gander Center
Mon 10:10:37 AM 47.8167 -62.6500 239° Southwest 450 518 43,000  Level Gander Center
Mon 10:11:37 AM 47.7500 -62.8000 237° Southwest 460 529 43,000  Level Gander Center
Mon 10:12:37 AM 47.6833 -62.9667 239° Southwest 460 529 43,000  Level Gander Center
Mon 10:13:58 AM 47.6000 -63.1833 240° Southwest 460 529 43,000  Level Moncton Center
Mon 10:14:58 AM 47.5333 -63.3333 237° Southwest 460 529 43,000  Level Moncton Center
Mon 10:15:58 AM 47.4500 -63.5000 234° Southwest 460 529 43,000  Level Moncton Center
Mon 10:16:58 AM 47.3833 -63.6500 237° Southwest 460 529 43,000  Level Moncton Center
Mon 10:17:37 AM 47.3333 -63.7667 238° Southwest 450 518 43,000  Level Gander Center
Mon 10:18:37 AM 47.2667 -63.9167 237° Southwest 450 518 43,000  Level Gander Center
Mon 10:19:37 AM 47.2000 -64.0667 237° Southwest 450 518 43,000  Level Gander Center
Mon 10:20:37 AM 47.1167 -64.2333 234° Southwest 460 529 43,000  Level Gander Center
Mon 10:21:37 AM 47.0500 -64.3667 234° Southwest 450 518 43,000  Level Gander Center
Mon 10:22:37 AM 46.9833 -64.5333 240° Southwest 460 529 43,000  Level Gander Center
Mon 10:23:37 AM 46.9167 -64.6833 237° Southwest 460 529 43,000  Level Gander Center
Mon 10:24:37 AM 46.8333 -64.8500 234° Southwest 460 529 43,000  Level Gander Center
Mon 10:25:37 AM 46.7833 -64.9833 241° Southwest 450 518 43,000  Level Gander Center
Mon 10:26:37 AM 46.7000 -65.1500 234° Southwest 460 529 43,000  Level Gander Center
Mon 10:27:37 AM 46.6333 -65.3000 237° Southwest 450 518 43,000  Level Gander Center
Mon 10:28:37 AM 46.5667 -65.4667 240° Southwest 460 529 43,000  Level Gander Center
Mon 10:29:37 AM 46.5000 -65.6000 234° Southwest 460 529 43,000  Level Gander Center
Mon 10:30:37 AM 46.4167 -65.7667 234° Southwest 460 529 43,000  Level Gander Center
Mon 10:31:37 AM 46.3500 -65.9000 234° Southwest 450 518 43,000  Level Gander Center
Mon 10:32:37 AM 46.2500 -66.0667 229° Southwest 450 518 43,000  Level Gander Center
Mon 10:33:42 AM 46.2042 -66.2106 245° Southwest 459 528 43,000 -85 Level Boston Center
Mon 10:34:58 AM 46.1000 -66.4000 232° Southwest 460 529 42,800 -441 Descending Moncton Center
Mon 10:35:58 AM 46.0167 -66.5500 231° Southwest 460 529 42,000 -1,450 Descending Moncton Center
Mon 10:36:58 AM 45.9333 -66.7000 231° Southwest 470 541 39,900 -2,100 Descending Moncton Center
Mon 10:37:58 AM 45.8667 -66.8500 237° Southwest 470 541 37,800 -2,200 Descending Moncton Center
Mon 10:38:58 AM 45.8000 -67.0167 240° Southwest 480 552 35,500 -2,100 Descending Moncton Center
Mon 10:39:58 AM 45.7000 -67.1500 223° Southwest 480 552 33,600 -1,900 Descending Moncton Center
Mon 10:40:58 AM 45.6000 -67.2833 223° Southwest 480 552 31,700 -1,700 Descending Moncton Center
Mon 10:41:58 AM 45.5167 -67.4333 232° Southwest 470 541 30,200 -1,600 Descending Moncton Center
Mon 10:42:58 AM 45.4333 -67.5833 232° Southwest 470 541 28,500 -1,525 Descending Moncton Center
Mon 10:43:56 AM 45.3847 -67.7006 239° Southwest 468 539 27,200 -1,700 Descending Boston Center
Mon 10:44:58 AM 45.2667 -67.8667 225° Southwest 470 541 25,100 -1,967 Descending Moncton Center
Mon 10:45:58 AM 45.2269 -67.9819 244° Southwest 462 532 23,200 -2,705 Descending Boston Center
Mon 10:47:00 AM 45.1236 -68.1058 220° Southwest 419 482 19,600 -3,366 Descending Boston Center
Mon 10:48:01 AM 45.0372 -68.1972 217° Southwest 414 476 16,300 -3,443 Descending Boston Center
Mon 10:49:02 AM 44.9469 -68.2928 217° Southwest 409 471 12,600 -3,282 Descending Boston Center
Mon 10:49:58 AM 44.8333 -68.3833 209° Southwest 380 437 9,900 -3,672 Descending Moncton Center
Mon 10:50:58 AM 44.7833 -68.4500 223° Southwest 380 437 5,500 -3,450 Descending Moncton Center
Mon 10:51:58 AM 44.7000 -68.5333 215° Southwest 370 426 3,000 -1,450 Descending Moncton Center
Mon 10:52:58 AM 44.6667 -68.6333 245° Southwest 330 380 2,600 -250 Descending Moncton Center
Mon 10:53:58 AM 44.6833 -68.7000 289° West 240 276 2,500 -400 Descending Moncton Center
Mon 10:54:58 AM 44.7167 -68.7333 325° Northwest 180 207 1,800 -550 Descending Moncton Center
Mon 10:55:58 AM 44.7500 -68.7833 313° West 160 184 1,400 -622 Descending Moncton Center
Mon 10:57:13 AM 44.7908 -68.8044 340° North 128 147 400 -800 Descending Boston Center
Mon 10:59:00 AM 44.8000 -68.8167 133° Southeast  Level FlightAware Approximate

Login

Don't have an account? Register now (free) for customized features, flight alerts, and more!